Time;durP1;ratioP1;P1;durP2;ratioP2;P2;SDS_P1;SDS_P2;PMS_P1;PMS_P2;Temp;Humidity;BMP_temperature;BMP_pressure;BME280_temperature;BME280_humidity;BME280_pressure;Samples;Min_cycle;Max_cycle;Signal;HPM_P1;HPM_P2
2022/03/27 00:00:59;;;;;;;5.70;3.60;;;10.00;85.10;;;;;;2067917;28;20046;-88
2022/03/27 00:02:00;;;;;;;4.60;3.10;;;10.00;85.20;;;;;;2057875;28;20509;-87
2022/03/27 00:03:01;;;;;;;4.97;3.13;;;9.90;85.20;;;;;;2060167;28;20166;-87
2022/03/27 00:04:02;;;;;;;5.25;3.30;;;10.00;85.30;;;;;;2065816;28;20397;-88
2022/03/27 00:05:02;;;;;;;5.15;3.17;;;10.00;85.30;;;;;;2066006;28;20034;-88
2022/03/27 00:06:03;;;;;;;5.70;3.30;;;9.90;85.30;;;;;;2070180;28;20688;-88
2022/03/27 00:07:04;;;;;;;6.60;3.78;;;9.90;85.40;;;;;;2073072;28;20038;-88
2022/03/27 00:08:05;;;;;;;5.72;3.72;;;9.90;85.40;;;;;;2057843;28;20474;-88
2022/03/27 00:09:05;;;;;;;4.80;3.03;;;9.90;85.40;;;;;;2065012;28;20042;-87
2022/03/27 00:10:07;;;;;;;5.93;3.60;;;9.90;85.40;;;;;;2072451;28;20026;-88
2022/03/27 00:11:26;;;;;;;5.72;3.50;;;9.90;85.50;;;;;;2074022;28;20045;-87
2022/03/27 00:12:27;;;;;;;5.53;3.53;;;9.90;85.60;;;;;;2072198;28;20473;-87
2022/03/27 00:13:28;;;;;;;6.03;3.38;;;9.90;85.60;;;;;;2059732;28;20464;-88
2022/03/27 00:14:29;;;;;;;6.07;3.80;;;9.90;85.60;;;;;;2074074;28;20030;-87
2022/03/27 00:15:30;;;;;;;5.40;3.40;;;9.90;86.20;;;;;;2073649;28;20030;-88
2022/03/27 00:16:31;;;;;;;5.43;3.40;;;9.90;85.70;;;;;;2071764;28;20499;-87
2022/03/27 00:17:34;;;;;;;4.55;3.00;;;9.90;85.70;;;;;;2046231;28;20522;-88
2022/03/27 00:18:35;;;;;;;6.45;3.63;;;9.90;85.70;;;;;;2043691;28;20384;-88
2022/03/27 00:19:36;;;;;;;5.88;3.78;;;10.00;85.80;;;;;;2059754;28;20035;-87
2022/03/27 00:20:36;;;;;;;5.07;3.30;;;9.90;85.70;;;;;;2059494;28;20038;-87
2022/03/27 00:21:38;;;;;;;6.00;3.90;;;10.00;85.80;;;;;;2056822;28;20031;-87
2022/03/27 00:22:39;;;;;;;5.55;3.50;;;10.00;85.80;;;;;;2063156;28;20378;-87
2022/03/27 00:23:40;;;;;;;6.78;3.70;;;9.90;85.80;;;;;;2070454;28;20077;-88
2022/03/27 00:24:41;;;;;;;6.63;3.78;;;9.90;85.90;;;;;;2073959;28;20065;-88
2022/03/27 00:25:43;;;;;;;5.70;3.50;;;9.90;85.90;;;;;;2073669;28;20084;-87
2022/03/27 00:26:44;;;;;;;5.03;3.50;;;10.00;86.00;;;;;;2064008;28;20150;-86
2022/03/27 00:27:44;;;;;;;4.50;3.28;;;9.90;85.90;;;;;;2057634;28;20083;-87
2022/03/27 00:28:45;;;;;;;4.55;3.28;;;9.90;85.90;;;;;;2058409;28;20077;-88
2022/03/27 00:29:46;;;;;;;6.22;3.60;;;9.90;85.90;;;;;;2073955;28;20034;-88
2022/03/27 00:30:47;;;;;;;5.00;3.30;;;10.00;86.00;;;;;;2064704;28;20034;-87
2022/03/27 00:31:48;;;;;;;5.43;3.58;;;10.00;86.00;;;;;;2057775;28;20023;-87
2022/03/27 00:32:49;;;;;;;5.82;3.47;;;10.00;85.90;;;;;;2058973;28;20115;-88
2022/03/27 00:33:50;;;;;;;6.38;3.78;;;10.00;85.90;;;;;;2064637;28;20026;-88
2022/03/27 00:34:51;;;;;;;5.43;3.42;;;10.00;85.80;;;;;;2073760;28;20411;-87
2022/03/27 00:35:51;;;;;;;5.88;4.10;;;10.00;85.80;;;;;;2073741;28;20095;-88
2022/03/27 00:36:52;;;;;;;6.07;3.80;;;10.00;85.90;;;;;;2072014;28;20045;-87
2022/03/27 00:37:53;;;;;;;6.65;4.43;;;10.00;86.00;;;;;;2069522;28;20068;-87
2022/03/27 00:38:54;;;;;;;5.70;3.78;;;10.00;86.10;;;;;;2065514;28;20026;-87
2022/03/27 00:39:54;;;;;;;6.55;4.50;;;9.90;86.10;;;;;;2064087;28;20038;-88
2022/03/27 00:40:55;;;;;;;6.68;4.10;;;9.90;86.20;;;;;;2062340;28;20062;-87
2022/03/27 00:41:56;;;;;;;5.63;3.83;;;9.90;86.20;;;;;;2071735;28;20551;-88
2022/03/27 00:42:57;;;;;;;6.00;3.88;;;9.90;86.20;;;;;;2064947;28;20058;-87
2022/03/27 00:43:57;;;;;;;6.25;4.10;;;9.90;86.20;;;;;;2065357;28;20524;-88
2022/03/27 00:44:58;;;;;;;5.78;4.22;;;9.80;86.90;;;;;;2073616;28;20408;-88
2022/03/27 00:45:59;;;;;;;5.50;4.13;;;9.80;86.30;;;;;;2057172;28;20046;-87
2022/03/27 00:47:01;;;;;;;6.45;4.10;;;9.80;86.40;;;;;;2065018;28;20022;-88
2022/03/27 00:48:01;;;;;;;5.47;3.95;;;9.80;86.50;;;;;;2068839;28;20026;-87
2022/03/27 00:49:03;;;;;;;6.22;4.55;;;9.80;86.50;;;;;;2074412;28;20034;-88
2022/03/27 00:50:05;;;;;;;6.50;4.15;;;9.80;86.60;;;;;;2068308;28;20124;-88
2022/03/27 00:51:06;;;;;;;5.60;4.18;;;9.70;86.60;;;;;;2067480;28;20025;-88
2022/03/27 00:52:06;;;;;;;5.82;4.18;;;9.70;86.70;;;;;;2073114;28;20057;-88
2022/03/27 00:53:08;;;;;;;5.90;4.25;;;9.70;86.80;;;;;;2073403;28;20060;-88
2022/03/27 00:54:09;;;;;;;5.93;4.25;;;9.70;86.80;;;;;;2063107;28;20105;-88
2022/03/27 00:55:10;;;;;;;6.15;4.13;;;9.70;86.90;;;;;;2064553;28;20497;-88
2022/03/27 00:56:11;;;;;;;6.28;4.43;;;9.70;86.90;;;;;;2062072;28;20038;-87
2022/03/27 00:57:12;;;;;;;7.40;4.47;;;9.60;87.50;;;;;;2057504;28;20049;-88
2022/03/27 00:58:13;;;;;;;6.07;4.22;;;9.60;86.90;;;;;;2067180;28;20077;-88
2022/03/27 00:59:14;;;;;;;5.78;4.20;;;9.60;86.90;;;;;;2071646;28;20047;-88
2022/03/27 01:00:43;;;;;;;5.65;4.07;;;9.60;87.00;;;;;;2068156;28;20112;-87
2022/03/27 01:01:44;;;;;;;6.25;4.43;;;9.60;87.00;;;;;;2069332;28;20049;-88
2022/03/27 01:02:45;;;;;;;7.03;4.60;;;9.60;87.00;;;;;;2069288;28;20030;-87
2022/03/27 01:03:48;;;;;;;6.68;4.82;;;9.60;87.00;;;;;;2070495;28;20033;-87
2022/03/27 01:04:54;;;;;;;6.38;4.85;;;9.60;87.10;;;;;;2072988;28;20496;-88
2022/03/27 01:05:58;;;;;;;7.68;5.35;;;9.60;87.10;;;;;;2072957;28;20022;-87
2022/03/27 01:06:59;;;;;;;6.55;5.13;;;9.50;87.10;;;;;;2071106;28;20030;-87
2022/03/27 01:08:06;;;;;;;7.45;5.38;;;9.50;87.20;;;;;;2072727;28;20033;-88
2022/03/27 01:10:28;;;;;;;;;;;9.50;87.30;;;;;;2068668;28;20092;-87
2022/03/27 01:11:28;;;;;;;6.55;4.93;;;9.50;87.20;;;;;;2065080;28;19920;-88
2022/03/27 01:12:38;;;;;;;6.80;5.00;;;9.50;87.10;;;;;;2064899;28;20031;-88
2022/03/27 01:13:43;;;;;;;6.35;4.57;;;9.50;87.10;;;;;;2072519;28;20029;-87
2022/03/27 01:14:44;;;;;;;6.05;4.60;;;9.50;87.80;;;;;;2071730;28;20419;-87
2022/03/27 01:15:57;;;;;;;7.38;5.00;;;9.50;87.20;;;;;;2056380;28;20069;-88
2022/03/27 01:17:08;;;;;;;6.22;4.68;;;9.50;87.20;;;;;;2055810;28;20078;-87
2022/03/27 01:18:09;;;;;;;8.07;5.25;;;9.50;87.20;;;;;;2066255;28;20031;-88
2022/03/27 01:19:12;;;;;;;6.25;4.75;;;9.60;87.20;;;;;;2070732;28;20026;-88
2022/03/27 01:20:23;;;;;;;6.35;4.88;;;9.60;87.10;;;;;;2072232;28;20133;-88
2022/03/27 01:21:24;;;;;;;6.72;4.90;;;9.60;87.10;;;;;;2072102;28;20042;-87
2022/03/27 01:22:24;;;;;;;6.72;4.68;;;9.60;87.10;;;;;;2071497;28;20022;-88
2022/03/27 01:23:25;;;;;;;7.13;4.93;;;9.60;87.10;;;;;;2065346;28;20077;-87
2022/03/27 01:24:26;;;;;;;6.72;4.82;;;9.60;87.10;;;;;;2062800;28;20042;-86
2022/03/27 01:25:27;;;;;;;6.72;5.10;;;9.60;87.20;;;;;;2056532;28;20034;-88
2022/03/27 01:26:29;;;;;;;7.38;5.55;;;9.60;87.20;;;;;;2072491;28;20045;-87
2022/03/27 01:27:30;;;;;;;7.30;5.40;;;9.60;87.20;;;;;;2071392;28;20030;-88
2022/03/27 01:28:31;;;;;;;6.32;5.03;;;9.60;87.30;;;;;;2057164;28;20030;-88
2022/03/27 01:29:32;;;;;;;7.45;5.57;;;9.60;87.40;;;;;;2061754;28;20058;-88
2022/03/27 01:30:32;;;;;;;6.25;4.65;;;9.60;87.30;;;;;;2052636;28;20429;-88
2022/03/27 01:31:33;;;;;;;7.95;5.68;;;9.60;87.30;;;;;;2049632;28;20031;-88
2022/03/27 01:32:34;;;;;;;6.47;5.05;;;9.60;87.30;;;;;;2054878;28;20035;-87
2022/03/27 01:33:35;;;;;;;6.93;5.40;;;9.60;87.30;;;;;;2064112;28;20039;-88
2022/03/27 01:34:35;;;;;;;7.53;6.00;;;9.60;87.40;;;;;;2066442;28;20124;-87
2022/03/27 01:35:37;;;;;;;7.13;5.50;;;9.60;87.50;;;;;;2072165;28;20148;-88
2022/03/27 01:36:37;;;;;;;7.35;5.38;;;9.50;87.50;;;;;;2072165;28;20069;-88
2022/03/27 01:37:38;;;;;;;7.53;5.60;;;9.60;87.60;;;;;;2054215;28;20031;-88
2022/03/27 01:38:39;;;;;;;7.63;6.20;;;9.50;87.60;;;;;;2048397;28;20058;-87
2022/03/27 01:39:40;;;;;;;7.65;6.10;;;9.60;87.70;;;;;;2065037;28;20034;-88
2022/03/27 01:40:41;;;;;;;7.15;5.55;;;9.60;87.70;;;;;;2073151;28;20496;-88
2022/03/27 01:41:43;;;;;;;7.40;5.47;;;9.60;87.70;;;;;;2071868;28;20117;-87
2022/03/27 01:42:44;;;;;;;8.05;5.75;;;9.50;87.60;;;;;;2073496;28;20030;-88
2022/03/27 01:43:45;;;;;;;7.85;5.75;;;9.60;87.60;;;;;;2071788;28;20033;-88
2022/03/27 01:44:46;;;;;;;7.93;5.72;;;9.60;87.60;;;;;;2062709;28;20050;-88
2022/03/27 01:45:47;;;;;;;8.52;5.82;;;9.60;87.60;;;;;;2055765;28;20485;-88
2022/03/27 01:46:48;;;;;;;6.57;5.32;;;9.60;87.60;;;;;;2065085;28;20125;-88
2022/03/27 01:47:49;;;;;;;7.53;5.93;;;9.60;87.70;;;;;;2066355;28;20026;-88
2022/03/27 01:48:49;;;;;;;6.78;5.43;;;9.60;87.70;;;;;;2073209;28;20404;-87
2022/03/27 01:49:50;;;;;;;8.38;5.82;;;9.60;87.70;;;;;;2064988;28;20050;-87
2022/03/27 01:51:00;;;;;;;7.03;5.43;;;9.70;87.70;;;;;;2073014;28;20026;-88
2022/03/27 01:52:01;;;;;;;7.40;5.90;;;9.70;87.60;;;;;;2071189;28;20034;-88
2022/03/27 01:53:02;;;;;;;7.40;5.32;;;9.70;87.50;;;;;;2071483;28;20089;-87
2022/03/27 01:54:03;;;;;;;7.68;5.75;;;9.70;87.50;;;;;;2070991;28;20030;-87
2022/03/27 01:55:16;;;;;;;8.02;5.82;;;9.60;87.50;;;;;;2071715;28;20034;-88
2022/03/27 01:56:16;;;;;;;9.52;6.65;;;9.60;87.60;;;;;;2072155;28;20562;-88
2022/03/27 01:57:17;;;;;;;8.30;6.10;;;9.60;87.60;;;;;;2073152;28;20117;-87
2022/03/27 01:58:18;;;;;;;9.10;6.63;;;9.60;87.70;;;;;;2064200;28;20066;-88
2022/03/27 01:59:22;;;;;;;9.23;6.40;;;9.60;87.70;;;;;;2073108;28;20022;-88
2022/03/27 02:00:22;;;;;;;7.40;5.90;;;9.60;87.70;;;;;;2072857;28;20022;-88
2022/03/27 02:01:23;;;;;;;7.30;5.88;;;9.60;87.70;;;;;;2072752;28;20064;-88
2022/03/27 02:02:24;;;;;;;7.53;5.85;;;9.60;87.70;;;;;;2071774;28;20022;-88
2022/03/27 02:03:28;;;;;;;7.25;5.80;;;9.60;87.80;;;;;;2072044;28;20060;-88
2022/03/27 02:04:28;;;;;;;6.90;5.38;;;9.60;87.80;;;;;;2064094;28;20031;-88
2022/03/27 02:05:31;;;;;;;7.18;5.63;;;9.60;87.80;;;;;;2063572;28;20093;-87
2022/03/27 02:06:33;;;;;;;7.53;5.75;;;9.60;87.80;;;;;;2052332;28;20174;-87
2022/03/27 02:07:37;;;;;;;7.60;5.82;;;9.60;87.70;;;;;;2049491;28;20035;-88
2022/03/27 02:08:38;;;;;;;7.60;5.88;;;9.60;87.80;;;;;;2055959;28;20148;-88
2022/03/27 02:09:39;;;;;;;7.75;6.10;;;9.60;87.80;;;;;;2057041;28;20034;-88
2022/03/27 02:10:41;;;;;;;6.60;5.20;;;9.50;87.70;;;;;;2055380;28;20031;-88
2022/03/27 02:11:43;;;;;;;6.75;5.20;;;9.50;87.80;;;;;;2048963;28;20047;-87
2022/03/27 02:12:43;;;;;;;7.85;5.72;;;9.50;88.00;;;;;;2046147;28;20086;-88
2022/03/27 02:13:44;;;;;;;7.20;5.43;;;9.50;88.00;;;;;;2056595;28;20190;-86
2022/03/27 02:14:45;;;;;;;7.07;5.60;;;9.50;88.00;;;;;;2063537;28;20030;-87
2022/03/27 02:15:46;;;;;;;7.90;5.80;;;9.40;88.10;;;;;;2070241;28;20108;-88
2022/03/27 02:16:48;;;;;;;8.55;5.43;;;9.50;88.10;;;;;;2071366;28;20018;-87
2022/03/27 02:17:49;;;;;;;7.90;5.70;;;9.40;88.10;;;;;;2070454;28;20057;-88
2022/03/27 02:18:50;;;;;;;7.55;5.50;;;9.40;88.10;;;;;;2063497;28;20042;-87
2022/03/27 02:19:50;;;;;;;7.50;5.03;;;9.40;88.10;;;;;;2065073;28;20088;-88
2022/03/27 02:20:51;;;;;;;7.85;5.75;;;9.40;88.20;;;;;;2056711;28;20030;-87
2022/03/27 02:21:52;;;;;;;7.15;5.18;;;9.40;88.10;;;;;;2056957;28;20035;-88
2022/03/27 02:22:52;;;;;;;7.50;5.47;;;9.30;88.10;;;;;;2066673;28;20392;-87
2022/03/27 02:23:53;;;;;;;8.10;5.57;;;9.30;88.20;;;;;;2063189;28;20038;-88
2022/03/27 02:24:54;;;;;;;6.80;5.05;;;9.30;88.20;;;;;;2055476;28;20047;-88
2022/03/27 02:25:56;;;;;;;7.35;4.88;;;9.30;88.30;;;;;;2069790;28;20444;-87
2022/03/27 02:26:56;;;;;;;6.88;5.32;;;9.30;88.30;;;;;;2068860;28;20030;-88
2022/03/27 02:27:57;;;;;;;7.40;5.65;;;9.20;88.30;;;;;;2063746;28;20410;-87
2022/03/27 02:28:58;;;;;;;8.50;5.50;;;9.20;88.90;;;;;;2056838;28;20030;-87
2022/03/27 02:29:58;;;;;;;6.78;4.78;;;9.30;89.00;;;;;;2063868;28;20018;-88
2022/03/27 02:30:59;;;;;;;6.97;5.43;;;9.30;88.30;;;;;;2064487;28;20035;-87
2022/03/27 02:32:00;;;;;;;6.90;4.90;;;9.20;88.30;;;;;;2048833;28;20449;-88
2022/03/27 02:33:01;;;;;;;7.95;5.30;;;9.20;88.30;;;;;;2047418;28;20449;-88
2022/03/27 02:34:01;;;;;;;6.50;5.13;;;9.20;88.30;;;;;;2064024;28;20031;-88
2022/03/27 02:35:02;;;;;;;7.35;4.75;;;9.20;88.30;;;;;;2054851;28;20031;-87
2022/03/27 02:36:05;;;;;;;6.95;4.90;;;9.20;88.40;;;;;;2066581;28;20519;-87
2022/03/27 02:37:07;;;;;;;6.57;5.00;;;9.20;88.40;;;;;;2072668;28;20061;-88
2022/03/27 02:38:08;;;;;;;7.25;5.30;;;9.20;88.40;;;;;;2071650;28;20489;-88
2022/03/27 02:39:09;;;;;;;5.90;4.57;;;9.20;88.40;;;;;;2073592;28;20029;-87
2022/03/27 02:40:10;;;;;;;7.47;5.00;;;9.20;88.40;;;;;;2072076;28;20109;-88
2022/03/27 02:41:12;;;;;;;6.53;5.10;;;9.20;88.40;;;;;;2071901;28;20467;-87
2022/03/27 02:42:13;;;;;;;6.63;4.90;;;9.20;88.40;;;;;;2064751;28;20018;-87
2022/03/27 02:43:13;;;;;;;6.82;4.70;;;9.20;88.40;;;;;;2070248;28;20029;-88
2022/03/27 02:44:14;;;;;;;7.35;5.10;;;9.20;88.30;;;;;;2072271;28;20034;-88
2022/03/27 02:45:15;;;;;;;6.28;4.90;;;9.20;88.30;;;;;;2073116;28;20037;-87
2022/03/27 02:46:16;;;;;;;6.32;4.72;;;9.20;88.30;;;;;;2064627;28;20023;-88
2022/03/27 02:47:17;;;;;;;7.18;5.07;;;9.30;88.40;;;;;;2063892;28;20110;-88
2022/03/27 02:48:18;;;;;;;7.88;5.28;;;9.20;88.30;;;;;;2047509;28;20101;-88
2022/03/27 02:49:18;;;;;;;7.40;5.10;;;9.20;88.30;;;;;;2049621;28;20046;-87
2022/03/27 02:50:19;;;;;;;7.28;5.80;;;9.20;88.30;;;;;;2064963;28;20053;-87
2022/03/27 02:51:20;;;;;;;7.70;6.03;;;9.30;88.20;;;;;;2063896;28;20485;-88
2022/03/27 02:52:21;;;;;;;9.00;5.35;;;9.20;88.20;;;;;;2063429;28;20105;-87
2022/03/27 02:53:22;;;;;;;8.68;6.32;;;9.20;88.30;;;;;;2072050;28;20541;-88
2022/03/27 02:54:22;;;;;;;8.57;6.60;;;9.20;88.40;;;;;;2069693;28;20046;-87
2022/03/27 02:55:24;;;;;;;8.05;6.00;;;9.10;88.40;;;;;;2072219;28;20065;-87
2022/03/27 02:56:24;;;;;;;8.05;6.47;;;9.10;88.50;;;;;;2072719;28;20032;-87
2022/03/27 02:57:26;;;;;;;8.85;6.38;;;9.10;88.60;;;;;;2072580;28;20030;-87
2022/03/27 02:58:26;;;;;;;8.77;6.20;;;9.00;88.60;;;;;;2064228;28;20030;-87
2022/03/27 02:59:27;;;;;;;8.90;6.38;;;9.00;88.80;;;;;;2063460;28;20394;-87
2022/03/27 03:00:28;;;;;;;7.90;6.07;;;9.00;88.80;;;;;;2066053;28;20041;-87
2022/03/27 03:01:29;;;;;;;9.50;6.97;;;9.00;88.90;;;;;;2066636;28;20027;-87
2022/03/27 03:02:30;;;;;;;9.07;6.35;;;8.90;88.80;;;;;;2065207;28;20073;-87
2022/03/27 03:03:31;;;;;;;9.65;6.30;;;9.00;88.90;;;;;;2062730;28;20117;-88
2022/03/27 03:04:34;;;;;;;9.68;6.35;;;8.90;88.90;;;;;;2062988;28;20027;-88
2022/03/27 03:05:38;;;;;;;8.35;6.30;;;8.90;88.90;;;;;;2056478;28;20117;-87
2022/03/27 03:06:41;;;;;;;8.77;6.20;;;8.90;88.90;;;;;;2057282;28;20027;-88
2022/03/27 03:07:42;;;;;;;7.80;6.00;;;8.90;88.80;;;;;;2069598;28;20053;-88
2022/03/27 03:08:43;;;;;;;8.82;6.35;;;8.90;88.90;;;;;;2072026;28;20062;-88
2022/03/27 03:09:44;;;;;;;8.75;6.05;;;8.90;88.90;;;;;;2071835;28;20030;-88
2022/03/27 03:10:45;;;;;;;8.00;6.20;;;8.90;88.90;;;;;;2071738;28;20084;-88
2022/03/27 03:11:45;;;;;;;9.32;6.45;;;8.90;88.90;;;;;;2072823;28;20018;-88
2022/03/27 03:12:46;;;;;;;9.00;6.32;;;8.90;88.90;;;;;;2070497;28;20124;-87
2022/03/27 03:13:49;;;;;;;9.10;5.93;;;8.90;88.90;;;;;;2055821;28;20482;-87
2022/03/27 03:14:55;;;;;;;8.45;6.10;;;9.00;88.90;;;;;;2055433;28;20058;-87
2022/03/27 03:15:57;;;;;;;7.75;5.95;;;8.90;88.90;;;;;;2056456;28;20075;-88
2022/03/27 03:16:58;;;;;;;7.20;5.32;;;8.90;89.40;;;;;;2057335;28;20023;-88
2022/03/27 03:17:59;;;;;;;8.10;5.57;;;8.90;88.80;;;;;;2051239;28;20397;-87
2022/03/27 03:18:59;;;;;;;8.02;6.00;;;8.90;88.80;;;;;;2048167;28;20034;-88
2022/03/27 03:20:00;;;;;;;8.05;5.82;;;8.90;88.80;;;;;;2054631;28;20126;-87
2022/03/27 03:21:02;;;;;;;8.75;5.75;;;8.90;88.80;;;;;;2055629;28;20039;-88
2022/03/27 03:22:03;;;;;;;8.68;6.00;;;8.90;88.80;;;;;;2041519;28;20530;-87
2022/03/27 03:23:04;;;;;;;9.43;6.25;;;8.90;88.80;;;;;;2048667;28;20031;-87
2022/03/27 03:24:06;;;;;;;9.05;6.53;;;8.80;88.70;;;;;;2049396;28;20019;-87
2022/03/27 03:25:08;;;;;;;9.43;6.28;;;8.80;88.80;;;;;;2046482;28;20035;-87
2022/03/27 03:26:09;;;;;;;9.35;5.82;;;8.80;88.80;;;;;;2056006;28;20425;-88
2022/03/27 03:27:10;;;;;;;8.57;5.72;;;8.80;88.80;;;;;;2062527;28;20041;-88
2022/03/27 03:28:10;;;;;;;7.90;5.70;;;8.80;88.90;;;;;;2062015;28;20026;-88
2022/03/27 03:29:11;;;;;;;9.48;6.15;;;8.80;88.90;;;;;;2072107;28;20034;-87
2022/03/27 03:30:12;;;;;;;8.80;5.45;;;8.80;88.90;;;;;;2073336;28;20032;-88
2022/03/27 03:31:12;;;;;;;8.82;6.05;;;8.80;88.80;;;;;;2070787;28;20090;-88
2022/03/27 03:32:13;;;;;;;10.02;6.20;;;8.80;88.80;;;;;;2072078;28;20030;-88
2022/03/27 03:33:14;;;;;;;10.18;6.55;;;8.80;88.80;;;;;;2056187;28;20031;-88
2022/03/27 03:34:15;;;;;;;11.35;6.30;;;8.80;88.80;;;;;;2055915;28;20441;-86
2022/03/27 03:35:16;;;;;;;10.57;6.82;;;8.80;88.80;;;;;;2071581;28;20057;-88
2022/03/27 03:36:16;;;;;;;10.98;6.82;;;8.70;88.70;;;;;;2064512;28;20023;-88
2022/03/27 03:37:17;;;;;;;10.75;6.97;;;8.70;88.80;;;;;;2056292;28;20031;-87
2022/03/27 03:38:18;;;;;;;11.75;7.10;;;8.70;88.80;;;;;;2063199;28;20085;-88
2022/03/27 03:39:19;;;;;;;12.82;7.80;;;8.70;88.80;;;;;;2065227;28;20085;-87
2022/03/27 03:40:20;;;;;;;12.43;7.90;;;8.70;88.90;;;;;;2064621;28;20030;-88
2022/03/27 03:41:20;;;;;;;13.60;8.32;;;8.70;89.00;;;;;;2068726;28;20037;-87
2022/03/27 03:42:21;;;;;;;12.82;7.13;;;8.60;88.90;;;;;;2061082;28;20031;-88
2022/03/27 03:43:22;;;;;;;12.13;7.45;;;8.60;88.90;;;;;;2068687;28;20169;-87
2022/03/27 03:44:24;;;;;;;11.77;7.57;;;8.60;89.00;;;;;;2069042;28;20121;-88
2022/03/27 03:45:25;;;;;;;12.77;7.55;;;8.60;89.00;;;;;;2064322;28;20037;-88
2022/03/27 03:46:26;;;;;;;11.65;6.97;;;8.60;89.10;;;;;;2042300;28;20406;-88
2022/03/27 03:47:26;;;;;;;12.13;7.45;;;8.50;89.00;;;;;;2055095;28;20030;-88
2022/03/27 03:48:27;;;;;;;12.95;7.95;;;8.50;89.10;;;;;;2071234;28;20041;-88
2022/03/27 03:49:28;;;;;;;11.30;7.00;;;8.50;89.00;;;;;;2048874;28;20059;-88
2022/03/27 03:50:29;;;;;;;13.43;7.55;;;8.50;89.00;;;;;;2049696;28;20039;-87
2022/03/27 03:51:30;;;;;;;12.45;7.70;;;8.50;89.00;;;;;;2071501;28;20058;-88
2022/03/27 03:52:31;;;;;;;13.07;7.85;;;8.60;89.00;;;;;;2063957;28;22958;-87
2022/03/27 03:53:32;;;;;;;13.65;7.90;;;8.50;88.90;;;;;;2064561;28;20022;-88
2022/03/27 03:54:34;;;;;;;13.05;7.63;;;8.50;88.90;;;;;;2070904;28;20373;-88
2022/03/27 03:55:36;;;;;;;14.82;8.63;;;8.50;89.00;;;;;;2073970;28;20124;-88
2022/03/27 03:56:38;;;;;;;13.70;8.52;;;8.50;88.90;;;;;;2073396;28;20120;-88
2022/03/27 03:57:39;;;;;;;14.90;8.65;;;8.50;88.90;;;;;;2065429;28;20031;-87
2022/03/27 03:58:40;;;;;;;12.82;7.60;;;8.50;88.90;;;;;;2057142;28;20027;-88
2022/03/27 03:59:41;;;;;;;14.10;8.38;;;8.50;89.00;;;;;;2056550;28;20066;-88
2022/03/27 04:00:42;;;;;;;15.23;8.27;;;8.50;89.00;;;;;;2049575;28;20043;-87
2022/03/27 04:01:43;;;;;;;14.73;8.48;;;8.50;89.00;;;;;;2057341;28;20540;-87
2022/03/27 04:02:44;;;;;;;13.43;8.15;;;8.50;89.00;;;;;;2055873;28;20069;-87
2022/03/27 04:03:44;;;;;;;14.35;8.85;;;8.50;89.10;;;;;;2072750;28;20124;-88
2022/03/27 04:04:46;;;;;;;15.00;9.10;;;8.50;89.70;;;;;;2069219;28;20045;-87
2022/03/27 04:05:47;;;;;;;17.38;10.00;;;8.50;89.10;;;;;;2071310;28;20026;-87
2022/03/27 04:06:48;;;;;;;15.05;9.13;;;8.40;89.00;;;;;;2065965;28;20031;-87
2022/03/27 04:07:48;;;;;;;15.95;9.88;;;8.50;89.10;;;;;;2057402;28;20030;-87
2022/03/27 04:08:49;;;;;;;15.82;9.63;;;8.50;89.10;;;;;;2058031;28;20425;-88
2022/03/27 04:09:50;;;;;;;16.73;9.45;;;8.40;89.00;;;;;;2072598;28;20399;-88
2022/03/27 04:10:51;;;;;;;16.10;9.45;;;8.50;89.20;;;;;;2057687;28;20038;-88
2022/03/27 04:11:52;;;;;;;16.17;9.27;;;8.40;89.20;;;;;;2061824;28;20432;-88
2022/03/27 04:12:53;;;;;;;16.08;8.98;;;8.40;89.20;;;;;;2064634;28;20508;-88
2022/03/27 04:13:53;;;;;;;15.70;9.48;;;8.40;89.20;;;;;;2066141;28;20030;-87
2022/03/27 04:14:54;;;;;;;15.30;8.70;;;8.40;89.20;;;;;;2059712;28;20066;-88
2022/03/27 04:15:55;;;;;;;15.63;9.88;;;8.40;89.20;;;;;;2071096;28;20499;-88
2022/03/27 04:16:56;;;;;;;15.48;9.63;;;8.40;89.20;;;;;;2072974;28;20124;-87
2022/03/27 04:17:56;;;;;;;16.25;9.48;;;8.40;89.20;;;;;;2073170;28;20520;-88
2022/03/27 04:18:57;;;;;;;17.15;9.68;;;8.40;89.30;;;;;;2073986;28;20030;-87
2022/03/27 04:19:58;;;;;;;15.38;9.15;;;8.40;89.40;;;;;;2072287;28;20029;-87
2022/03/27 04:20:58;;;;;;;15.73;9.10;;;8.40;89.40;;;;;;2074342;28;20034;-88
2022/03/27 04:21:59;;;;;;;17.38;9.93;;;8.40;89.40;;;;;;2065488;28;20038;-88
2022/03/27 04:22:59;;;;;;;16.05;9.18;;;8.40;89.30;;;;;;2057267;28;20035;-88
2022/03/27 04:24:00;;;;;;;13.85;8.25;;;8.40;89.30;;;;;;2049771;28;20027;-87
2022/03/27 04:25:01;;;;;;;16.42;9.32;;;8.40;89.30;;;;;;2049312;28;20054;-87
2022/03/27 04:26:02;;;;;;;16.70;9.63;;;8.40;89.30;;;;;;2065672;28;20404;-88
2022/03/27 04:27:03;;;;;;;16.48;9.30;;;8.40;89.30;;;;;;2064295;28;20027;-88
2022/03/27 04:28:06;;;;;;;18.08;9.68;;;8.40;89.30;;;;;;2056830;28;20035;-87
2022/03/27 04:29:07;;;;;;;17.65;9.43;;;8.40;89.30;;;;;;2065795;28;20058;-87
2022/03/27 04:30:10;;;;;;;16.40;9.35;;;8.40;89.20;;;;;;2072180;28;20026;-87
2022/03/27 04:31:11;;;;;;;16.23;9.68;;;8.40;89.30;;;;;;2066139;28;20520;-87
2022/03/27 04:32:11;;;;;;;17.05;9.95;;;8.40;89.40;;;;;;2069954;28;20052;-87
2022/03/27 04:33:12;;;;;;;16.88;9.75;;;8.40;89.30;;;;;;2064752;28;20480;-88
2022/03/27 04:34:13;;;;;;;16.40;9.90;;;8.40;89.30;;;;;;2064550;28;20037;-88
2022/03/27 04:35:14;;;;;;;17.67;9.68;;;8.30;89.30;;;;;;2071275;28;20026;-87
2022/03/27 04:36:15;;;;;;;17.65;9.90;;;8.40;89.30;;;;;;2072708;28;20030;-87
2022/03/27 04:37:16;;;;;;;17.17;10.38;;;8.30;89.30;;;;;;2057988;28;20505;-87
2022/03/27 04:38:16;;;;;;;17.67;10.13;;;8.30;89.30;;;;;;2063042;28;20058;-87
2022/03/27 04:39:17;;;;;;;17.55;10.50;;;8.30;89.40;;;;;;2074087;28;20037;-87
2022/03/27 04:40:18;;;;;;;16.33;9.95;;;8.30;89.40;;;;;;2073120;28;20025;-87
2022/03/27 04:41:19;;;;;;;16.85;9.95;;;8.30;89.40;;;;;;2072582;28;20069;-88
2022/03/27 04:42:20;;;;;;;15.95;9.65;;;8.30;89.50;;;;;;2074120;28;20484;-88
2022/03/27 04:43:22;;;;;;;16.15;9.80;;;8.30;89.50;;;;;;2073187;28;20076;-87
2022/03/27 04:44:23;;;;;;;16.50;9.93;;;8.30;89.50;;;;;;2072815;28;20022;-87
2022/03/27 04:45:24;;;;;;;16.33;9.85;;;8.30;89.40;;;;;;2068008;28;20070;-87
2022/03/27 04:46:25;;;;;;;14.98;9.43;;;8.30;89.40;;;;;;2066226;28;20026;-87
2022/03/27 04:47:25;;;;;;;16.10;9.18;;;8.30;89.40;;;;;;2061746;28;20041;-87
2022/03/27 04:48:26;;;;;;;15.55;9.40;;;8.30;89.40;;;;;;2057139;28;20023;-88
2022/03/27 04:49:27;;;;;;;14.68;8.98;;;8.30;89.40;;;;;;2057367;28;20097;-88
2022/03/27 04:50:28;;;;;;;16.23;9.77;;;8.30;89.30;;;;;;2063465;28;20050;-87
2022/03/27 04:51:29;;;;;;;15.68;9.10;;;8.40;89.30;;;;;;2070781;28;20496;-88
2022/03/27 04:52:30;;;;;;;14.68;9.23;;;8.30;89.20;;;;;;2073212;28;20507;-87
2022/03/27 04:53:30;;;;;;;15.18;9.45;;;8.40;89.20;;;;;;2064197;28;20108;-88
2022/03/27 04:54:32;;;;;;;15.30;9.15;;;8.40;89.20;;;;;;2073754;28;20030;-88
2022/03/27 04:55:33;;;;;;;14.93;8.80;;;8.40;89.20;;;;;;2072676;28;20080;-87
2022/03/27 04:56:33;;;;;;;14.82;9.00;;;8.40;89.20;;;;;;2064446;28;20440;-87
2022/03/27 04:57:37;;;;;;;15.88;8.95;;;8.40;89.20;;;;;;2073726;28;20121;-88
2022/03/27 04:58:37;;;;;;;14.90;9.10;;;8.40;89.20;;;;;;2065317;28;20018;-88
2022/03/27 04:59:38;;;;;;;15.98;9.48;;;8.40;89.10;;;;;;2049778;28;20085;-88
2022/03/27 05:00:39;;;;;;;14.15;8.93;;;8.40;89.00;;;;;;2046869;28;20035;-87
2022/03/27 05:01:41;;;;;;;14.98;9.00;;;8.40;89.00;;;;;;2052884;28;20153;-87
2022/03/27 05:02:43;;;;;;;14.40;8.27;;;8.40;89.00;;;;;;2057183;28;20137;-88
2022/03/27 05:03:43;;;;;;;14.80;9.10;;;8.30;89.00;;;;;;2065684;28;20428;-88
2022/03/27 05:04:44;;;;;;;14.23;8.38;;;8.30;89.00;;;;;;2056155;28;20066;-88
2022/03/27 05:05:45;;;;;;;14.20;8.95;;;8.30;89.00;;;;;;2053795;28;20554;-88
2022/03/27 05:06:45;;;;;;;14.57;8.93;;;8.30;89.00;;;;;;2056410;28;20110;-87
2022/03/27 05:07:46;;;;;;;15.43;9.23;;;8.30;89.00;;;;;;2057128;28;20401;-87
2022/03/27 05:08:47;;;;;;;14.32;9.05;;;8.30;89.00;;;;;;2060825;28;20081;-88
2022/03/27 05:09:47;;;;;;;14.15;8.57;;;8.30;88.90;;;;;;2065407;28;20031;-88
2022/03/27 05:10:48;;;;;;;15.85;9.30;;;8.30;88.90;;;;;;2059170;28;20030;-87
2022/03/27 05:11:49;;;;;;;13.88;9.20;;;8.20;89.40;;;;;;2048703;28;20597;-87
2022/03/27 05:12:49;;;;;;;13.45;8.38;;;8.20;89.40;;;;;;2070769;28;20022;-87
2022/03/27 05:13:50;;;;;;;14.60;9.00;;;8.20;88.90;;;;;;2065196;28;20508;-88
2022/03/27 05:14:50;;;;;;;13.38;8.38;;;8.20;88.80;;;;;;2049399;28;20570;-88
2022/03/27 05:15:51;;;;;;;13.88;8.88;;;8.10;88.70;;;;;;2048831;28;20145;-88
2022/03/27 05:16:52;;;;;;;12.70;8.18;;;8.10;89.40;;;;;;2048098;28;20031;-88
2022/03/27 05:17:55;;;;;;;13.35;8.60;;;8.00;88.70;;;;;;2064658;28;20035;-87
2022/03/27 05:18:55;;;;;;;12.52;8.25;;;8.00;88.80;;;;;;2071786;28;20029;-88
2022/03/27 05:19:56;;;;;;;12.82;7.93;;;7.90;88.70;;;;;;2055901;28;20504;-88
2022/03/27 05:20:57;;;;;;;12.82;8.13;;;7.90;88.80;;;;;;2058201;28;20035;-87
2022/03/27 05:21:57;;;;;;;14.77;9.13;;;7.90;88.80;;;;;;2056578;28;20568;-87
2022/03/27 05:23:01;;;;;;;14.18;8.82;;;7.80;88.70;;;;;;2062750;28;20046;-87
2022/03/27 05:24:02;;;;;;;14.85;9.10;;;7.80;88.80;;;;;;2049687;28;20395;-87